createdAt,value
2023-06-03T00:00:41.436Z,3.54
2023-06-03T00:01:41.461Z,3.90
2023-06-03T00:02:41.562Z,3.73
2023-06-03T00:03:41.510Z,3.51
2023-06-03T00:04:41.515Z,4.42
2023-06-03T00:05:41.553Z,4.51
2023-06-03T00:06:41.507Z,3.54
2023-06-03T00:07:41.525Z,3.45
2023-06-03T00:08:41.533Z,3.94
2023-06-03T00:09:41.575Z,3.53
2023-06-03T00:10:41.598Z,4.03
2023-06-03T00:11:41.590Z,4.09
2023-06-03T00:12:41.585Z,3.82
2023-06-03T00:13:41.607Z,4.30
2023-06-03T00:14:41.619Z,3.80
2023-06-03T00:15:41.623Z,4.39
2023-06-03T00:16:41.663Z,4.45
2023-06-03T00:17:41.686Z,3.52
2023-06-03T00:18:41.692Z,4.09
2023-06-03T00:19:41.663Z,3.77
2023-06-03T00:20:41.698Z,3.40
2023-06-03T00:21:41.738Z,4.08
2023-06-03T00:22:41.825Z,3.90
2023-06-03T00:23:41.786Z,3.86
2023-06-03T00:24:41.746Z,3.79
2023-06-03T00:25:41.783Z,3.54
2023-06-03T00:26:41.790Z,3.89
2023-06-03T00:27:41.805Z,4.30
2023-06-03T00:28:41.828Z,4.19
2023-06-03T00:29:41.838Z,3.08
2023-06-03T00:30:41.866Z,3.68
2023-06-03T00:31:41.927Z,3.82
2023-06-03T00:32:41.894Z,3.57
2023-06-03T00:33:42.001Z,4.01
2023-06-03T00:34:41.885Z,3.88
2023-06-03T00:35:41.888Z,3.36
2023-06-03T00:36:41.875Z,4.14
2023-06-03T00:37:41.910Z,4.05
2023-06-03T00:38:41.891Z,4.05
2023-06-03T00:39:41.890Z,3.44
2023-06-03T00:40:41.905Z,4.47
2023-06-03T00:41:41.928Z,4.02
2023-06-03T00:42:41.920Z,3.50
2023-06-03T00:43:41.960Z,3.72
2023-06-03T00:44:41.918Z,3.88
2023-06-03T00:45:42.033Z,4.17
2023-06-03T00:46:41.930Z,4.20
2023-06-03T00:47:41.981Z,3.53
2023-06-03T00:48:41.956Z,4.03
2023-06-03T00:49:41.965Z,4.00
2023-06-03T00:50:41.975Z,3.53
2023-06-03T00:51:42.018Z,3.87
2023-06-03T00:52:42.030Z,3.58
2023-06-03T00:53:42.051Z,4.29
2023-06-03T00:54:42.010Z,3.69
2023-06-03T00:55:42.071Z,3.76
2023-06-03T00:56:42.054Z,3.60
2023-06-03T00:57:42.110Z,3.53
2023-06-03T00:58:42.115Z,4.21
2023-06-03T00:59:42.095Z,4.22
2023-06-03T01:00:42.140Z,3.76
2023-06-03T01:01:42.148Z,3.78
2023-06-03T01:02:42.186Z,3.57
2023-06-03T01:03:42.175Z,3.87
2023-06-03T01:04:42.167Z,3.69
2023-06-03T01:05:42.177Z,3.44
2023-06-03T01:06:42.168Z,3.67
2023-06-03T01:07:42.208Z,3.84
2023-06-03T01:08:42.208Z,4.28
2023-06-03T01:09:42.239Z,4.05
2023-06-03T01:10:42.249Z,3.83
2023-06-03T01:11:42.274Z,3.68
2023-06-03T01:12:42.351Z,4.10
2023-06-03T01:13:42.315Z,3.70
2023-06-03T01:14:42.330Z,4.04
2023-06-03T01:15:42.420Z,3.92
2023-06-03T01:16:42.336Z,3.56
2023-06-03T01:17:42.383Z,3.34
2023-06-03T01:18:42.378Z,3.82
2023-06-03T01:19:42.356Z,3.29
2023-06-03T01:20:42.398Z,3.82
2023-06-03T01:21:42.383Z,3.94
2023-06-03T01:22:42.435Z,3.51
2023-06-03T01:23:42.462Z,3.37
2023-06-03T01:24:42.449Z,3.11
2023-06-03T01:25:42.461Z,3.04
2023-06-03T01:26:42.481Z,3.87
2023-06-03T01:27:42.507Z,3.70
2023-06-03T01:28:42.540Z,3.68
2023-06-03T01:29:42.533Z,3.09
2023-06-03T01:30:42.552Z,3.36
2023-06-03T01:31:42.696Z,3.73
2023-06-03T01:32:42.662Z,3.38
2023-06-03T01:33:42.575Z,3.00
2023-06-03T01:34:42.616Z,3.88
2023-06-03T01:35:42.615Z,3.84
2023-06-03T01:36:42.673Z,4.04
2023-06-03T01:37:42.689Z,3.90
2023-06-03T01:38:42.662Z,3.95
2023-06-03T01:39:42.691Z,3.71
2023-06-03T01:40:42.684Z,4.17
2023-06-03T01:41:42.647Z,3.81
2023-06-03T01:42:42.662Z,3.82
2023-06-03T01:43:42.652Z,3.73
2023-06-03T01:44:42.704Z,3.84
2023-06-03T01:45:42.706Z,4.36
2023-06-03T01:46:42.745Z,3.93
2023-06-03T01:47:42.743Z,3.94
2023-06-03T01:48:42.698Z,3.99
2023-06-03T01:49:42.693Z,3.97
2023-06-03T01:50:42.705Z,4.17
2023-06-03T01:51:42.752Z,3.52
2023-06-03T01:52:42.740Z,3.68
2023-06-03T01:53:42.740Z,3.84
2023-06-03T01:54:42.778Z,3.82
2023-06-03T01:55:42.761Z,4.11
2023-06-03T01:56:42.792Z,4.19
2023-06-03T01:57:42.814Z,3.99
2023-06-03T01:58:42.829Z,3.92
2023-06-03T01:59:42.794Z,3.88
2023-06-03T02:00:42.845Z,3.73
2023-06-03T02:01:42.846Z,4.21
2023-06-03T02:02:42.958Z,3.67
2023-06-03T02:03:42.876Z,3.35
2023-06-03T02:04:42.880Z,3.72
2023-06-03T02:05:42.901Z,3.54
2023-06-03T02:06:42.929Z,3.93
2023-06-03T02:07:42.948Z,3.94
2023-06-03T02:08:42.924Z,3.73
2023-06-03T02:09:42.974Z,4.18
2023-06-03T02:10:42.982Z,3.85
2023-06-03T02:11:43.008Z,3.58
2023-06-03T02:12:43.021Z,3.45
2023-06-03T02:13:43.008Z,3.40
2023-06-03T02:14:43.043Z,4.16
2023-06-03T02:15:43.068Z,3.74
2023-06-03T02:16:43.096Z,3.50
2023-06-03T02:17:43.097Z,3.83
2023-06-03T02:18:43.132Z,4.05
2023-06-03T02:19:43.099Z,4.11
2023-06-03T02:20:43.147Z,3.48
2023-06-03T02:21:43.164Z,3.58
2023-06-03T02:22:43.157Z,3.64
2023-06-03T02:23:43.274Z,3.63
2023-06-03T02:24:43.195Z,3.95
2023-06-03T02:25:43.181Z,3.63
2023-06-03T02:26:43.237Z,3.99
2023-06-03T02:27:43.283Z,3.43
2023-06-03T02:28:43.285Z,4.28
2023-06-03T02:29:43.291Z,3.96
2023-06-03T02:30:43.267Z,3.43
2023-06-03T02:31:43.315Z,4.00
2023-06-03T02:32:43.334Z,3.82
2023-06-03T02:33:43.340Z,3.74
2023-06-03T02:34:43.338Z,3.81
2023-06-03T02:35:43.367Z,3.14
2023-06-03T02:36:43.393Z,3.90
2023-06-03T02:37:43.395Z,4.19
2023-06-03T02:38:43.417Z,3.61
2023-06-03T02:39:43.430Z,3.71
2023-06-03T02:40:43.433Z,3.60
2023-06-03T02:41:44.754Z,3.39
2023-06-03T02:42:43.452Z,3.25
2023-06-03T02:43:43.466Z,4.18
2023-06-03T02:44:43.441Z,3.28
2023-06-03T02:45:43.526Z,3.85
2023-06-03T02:46:43.545Z,4.06
2023-06-03T02:47:43.572Z,3.71
2023-06-03T02:48:43.534Z,3.92
2023-06-03T02:49:43.536Z,3.40
2023-06-03T02:50:43.563Z,4.00
2023-06-03T02:51:43.585Z,3.97
2023-06-03T02:52:43.611Z,3.66
2023-06-03T02:53:43.596Z,3.77
2023-06-03T02:54:43.632Z,4.04
2023-06-03T02:55:43.638Z,3.02
2023-06-03T02:56:43.642Z,4.09
2023-06-03T02:57:43.653Z,4.23
2023-06-03T02:58:43.666Z,4.20
2023-06-03T02:59:43.697Z,4.71
2023-06-03T03:00:43.705Z,3.89
2023-06-03T03:01:43.766Z,3.34
2023-06-03T03:02:43.831Z,4.37
2023-06-03T03:03:43.781Z,3.69
2023-06-03T03:04:43.763Z,4.03
2023-06-03T03:05:43.768Z,3.87
2023-06-03T03:06:43.792Z,4.23
2023-06-03T03:07:43.827Z,3.56
2023-06-03T03:08:43.802Z,4.06
2023-06-03T03:09:43.809Z,3.67
2023-06-03T03:10:43.835Z,3.79
2023-06-03T03:11:43.851Z,3.43
2023-06-03T03:12:43.856Z,3.87
2023-06-03T03:13:43.876Z,3.50
2023-06-03T03:14:43.903Z,4.16
2023-06-03T03:15:43.877Z,3.44
2023-06-03T03:16:43.975Z,3.91
2023-06-03T03:17:44.012Z,3.97
2023-06-03T03:18:43.939Z,3.88
2023-06-03T03:19:43.966Z,4.55
2023-06-03T03:20:43.950Z,4.35
2023-06-03T03:21:43.985Z,4.49
2023-06-03T03:22:44.040Z,3.98
2023-06-03T03:23:44.062Z,4.05
2023-06-03T03:24:44.040Z,4.27
2023-06-03T03:25:44.069Z,3.82
2023-06-03T03:26:44.057Z,4.08
2023-06-03T03:27:44.060Z,3.94
2023-06-03T03:28:44.053Z,3.82
2023-06-03T03:29:44.064Z,4.13
2023-06-03T03:30:44.083Z,3.84
2023-06-03T03:31:44.138Z,4.32
2023-06-03T03:32:44.151Z,4.15
2023-06-03T03:33:44.166Z,4.13
2023-06-03T03:34:44.197Z,3.98
2023-06-03T03:35:44.211Z,4.07
2023-06-03T03:36:44.214Z,3.75
2023-06-03T03:37:44.215Z,4.16
2023-06-03T03:38:44.215Z,3.45
2023-06-03T03:39:44.263Z,4.08
2023-06-03T03:40:44.239Z,3.55
2023-06-03T03:41:44.273Z,4.25
2023-06-03T03:42:44.272Z,3.92
2023-06-03T03:43:44.300Z,4.15
2023-06-03T03:44:44.299Z,3.62
2023-06-03T03:45:44.341Z,4.08
2023-06-03T03:46:44.334Z,3.96
2023-06-03T03:47:44.301Z,3.90
2023-06-03T03:48:44.330Z,3.49
2023-06-03T03:49:44.343Z,3.64
2023-06-03T03:50:44.366Z,3.58
2023-06-03T03:51:44.399Z,4.02
2023-06-03T03:52:44.370Z,4.52
2023-06-03T03:53:44.410Z,3.90
2023-06-03T03:54:44.384Z,4.02
2023-06-03T03:55:44.429Z,3.69
2023-06-03T03:56:44.397Z,3.62
2023-06-03T03:57:44.436Z,4.34
2023-06-03T03:58:44.448Z,3.80
2023-06-03T03:59:44.466Z,4.23
2023-06-03T04:00:44.464Z,4.28
2023-06-03T04:01:44.522Z,3.95
2023-06-03T04:02:44.534Z,4.63
2023-06-03T04:03:44.554Z,4.72
2023-06-03T04:04:44.568Z,4.61
2023-06-03T04:05:44.540Z,4.11
2023-06-03T04:06:44.536Z,4.25
2023-06-03T04:07:44.552Z,4.70
2023-06-03T04:08:44.577Z,4.37
2023-06-03T04:09:44.557Z,4.72
2023-06-03T04:10:44.596Z,3.92
2023-06-03T04:11:44.579Z,4.35
2023-06-03T04:12:44.583Z,4.67
2023-06-03T04:13:44.612Z,4.13
2023-06-03T04:14:44.615Z,4.53
2023-06-03T04:15:44.698Z,4.42
2023-06-03T04:16:44.663Z,3.90
2023-06-03T04:17:44.706Z,3.97
2023-06-03T04:18:45.096Z,4.59
2023-06-03T04:19:44.721Z,3.68
2023-06-03T04:20:44.731Z,4.11
2023-06-03T04:21:44.696Z,4.32
2023-06-03T04:22:44.758Z,4.75
2023-06-03T04:23:44.755Z,4.52
2023-06-03T04:24:44.777Z,4.09
2023-06-03T04:25:44.753Z,4.43
2023-06-03T04:26:44.795Z,4.02
2023-06-03T04:27:44.811Z,4.04
2023-06-03T04:28:44.850Z,3.95
2023-06-03T04:29:44.825Z,4.09
2023-06-03T04:30:44.858Z,4.30
2023-06-03T04:31:44.912Z,4.45
2023-06-03T04:32:44.949Z,4.12
2023-06-03T04:33:44.934Z,4.56
2023-06-03T04:34:44.953Z,4.09
2023-06-03T04:35:44.931Z,4.52
2023-06-03T04:36:44.977Z,4.08
2023-06-03T04:37:44.962Z,4.47
2023-06-03T04:38:44.963Z,3.70
2023-06-03T04:39:45.023Z,3.78
2023-06-03T04:40:45.015Z,3.92
2023-06-03T04:41:45.023Z,4.24
2023-06-03T04:42:45.045Z,4.14
2023-06-03T04:43:45.043Z,3.69
2023-06-03T04:44:45.062Z,4.22
2023-06-03T04:45:45.038Z,3.56
2023-06-03T04:46:45.100Z,3.36
2023-06-03T04:47:45.124Z,4.06
2023-06-03T04:48:45.088Z,4.04
2023-06-03T04:49:45.103Z,4.47
2023-06-03T04:50:45.084Z,3.98
2023-06-03T04:51:45.111Z,4.33
2023-06-03T04:52:45.103Z,3.85
2023-06-03T04:53:45.142Z,4.14
2023-06-03T04:54:45.139Z,4.10
2023-06-03T04:55:45.150Z,4.54
2023-06-03T04:56:45.152Z,4.29
2023-06-03T04:57:45.152Z,3.42
2023-06-03T04:58:45.158Z,4.26
2023-06-03T04:59:45.252Z,4.27
2023-06-03T05:00:45.199Z,4.24
2023-06-03T05:01:45.255Z,3.91
2023-06-03T05:02:45.235Z,4.02
2023-06-03T05:03:45.245Z,3.59
2023-06-03T05:04:45.206Z,3.75
2023-06-03T05:05:45.186Z,4.31
2023-06-03T05:06:45.222Z,4.14
2023-06-03T05:07:45.206Z,4.83
2023-06-03T05:08:45.251Z,4.17
2023-06-03T05:09:45.254Z,4.59
2023-06-03T05:10:45.243Z,3.95
2023-06-03T05:11:45.245Z,4.17
2023-06-03T05:12:45.258Z,4.04
2023-06-03T05:13:45.266Z,4.00
2023-06-03T05:14:45.873Z,3.57
2023-06-03T05:15:45.299Z,3.95
2023-06-03T05:16:45.370Z,4.05
2023-06-03T05:17:45.372Z,4.16
2023-06-03T05:18:45.350Z,4.09
2023-06-03T05:19:45.337Z,4.22
2023-06-03T05:20:45.316Z,4.00
2023-06-03T05:21:45.352Z,3.88
2023-06-03T05:22:45.354Z,3.45
2023-06-03T05:23:45.382Z,3.30
2023-06-03T05:24:45.351Z,4.24
2023-06-03T05:25:45.366Z,4.39
2023-06-03T05:26:45.346Z,4.14
2023-06-03T05:27:57.761Z,3.89
2023-06-03T05:28:46.322Z,4.15
2023-06-03T05:29:45.291Z,4.37
2023-06-03T05:30:45.237Z,4.01
2023-06-03T05:31:45.297Z,4.21
2023-06-03T05:32:45.192Z,4.37
2023-06-03T05:33:45.140Z,4.16
2023-06-03T05:34:45.119Z,4.47
2023-06-03T05:35:45.067Z,3.78
2023-06-03T05:36:45.042Z,4.80
2023-06-03T05:37:45.019Z,4.86
2023-06-03T05:38:44.971Z,4.09
2023-06-03T05:39:44.939Z,4.33
2023-06-03T05:40:44.888Z,3.92
2023-06-03T05:41:44.887Z,4.10
2023-06-03T05:42:44.895Z,4.50
2023-06-03T05:43:44.884Z,3.97
2023-06-03T05:44:44.860Z,4.30
2023-06-03T05:45:44.971Z,4.22
2023-06-03T05:46:44.912Z,4.19
2023-06-03T05:47:44.997Z,4.58
2023-06-03T05:48:44.921Z,4.36
2023-06-03T05:49:44.895Z,4.22
2023-06-03T05:50:44.901Z,4.38
2023-06-03T05:51:44.913Z,4.42
2023-06-03T05:52:44.937Z,4.40
2023-06-03T05:53:44.996Z,4.03
2023-06-03T05:54:44.948Z,4.37
2023-06-03T05:55:44.918Z,4.01
2023-06-03T05:56:44.961Z,4.03
2023-06-03T05:57:44.965Z,3.61
2023-06-03T05:58:45.033Z,4.80
2023-06-03T05:59:44.972Z,4.31
2023-06-03T06:00:44.952Z,4.78
2023-06-03T06:01:44.960Z,4.04
2023-06-03T06:02:45.012Z,4.18
2023-06-03T06:03:45.132Z,4.09
2023-06-03T06:04:45.103Z,4.41
2023-06-03T06:05:45.012Z,4.41
2023-06-03T06:06:45.006Z,4.85
2023-06-03T06:07:45.027Z,4.44
2023-06-03T06:08:45.039Z,4.56
2023-06-03T06:09:45.037Z,4.08
2023-06-03T06:10:45.073Z,4.25
2023-06-03T06:11:45.060Z,4.84
2023-06-03T06:12:45.061Z,4.74
2023-06-03T06:13:45.072Z,4.10
2023-06-03T06:14:45.073Z,4.27
2023-06-03T06:15:45.200Z,4.36
2023-06-03T06:16:45.116Z,4.99
2023-06-03T06:17:45.129Z,4.36
2023-06-03T06:18:45.108Z,5.43
2023-06-03T06:19:45.101Z,4.22
2023-06-03T06:20:45.071Z,4.19
2023-06-03T06:21:45.059Z,4.82
2023-06-03T06:22:45.094Z,4.85
2023-06-03T06:23:45.163Z,3.70
2023-06-03T06:24:45.030Z,4.59
2023-06-03T06:25:45.073Z,5.00
2023-06-03T06:26:45.045Z,4.68
2023-06-03T06:27:45.084Z,4.77
2023-06-03T06:28:45.075Z,4.66
2023-06-03T06:29:45.053Z,4.46
2023-06-03T06:30:45.086Z,4.59
2023-06-03T06:31:45.147Z,4.58
2023-06-03T06:32:45.125Z,3.94
2023-06-03T06:33:45.071Z,5.00
2023-06-03T06:34:45.100Z,4.49
2023-06-03T06:35:45.127Z,4.32
2023-06-03T06:36:45.105Z,3.93
2023-06-03T06:37:46.981Z,4.26
2023-06-03T06:38:45.102Z,4.72
2023-06-03T06:39:45.063Z,4.49
2023-06-03T06:40:45.026Z,4.50
2023-06-03T06:41:45.006Z,5.28
2023-06-03T06:42:44.962Z,4.51
2023-06-03T06:43:44.904Z,4.53
2023-06-03T06:44:44.950Z,4.50
2023-06-03T06:45:44.875Z,4.38
2023-06-03T06:46:44.838Z,4.53
2023-06-03T06:47:44.819Z,4.69
2023-06-03T06:48:44.772Z,4.87
2023-06-03T06:49:44.723Z,5.09
2023-06-03T06:50:44.791Z,4.62
2023-06-03T06:51:44.658Z,4.88
2023-06-03T06:52:44.643Z,4.94
2023-06-03T06:53:44.574Z,4.45
2023-06-03T06:54:44.582Z,4.47
2023-06-03T06:55:45.121Z,4.94
2023-06-03T06:56:44.516Z,4.91
2023-06-03T06:57:44.481Z,5.09
2023-06-03T06:58:44.467Z,5.03
2023-06-03T06:59:44.452Z,4.90
2023-06-03T07:00:44.386Z,4.75
2023-06-03T07:01:44.421Z,4.74
2023-06-03T07:02:44.352Z,4.68
2023-06-03T07:03:44.330Z,4.68
2023-06-03T07:04:44.263Z,4.88
2023-06-03T07:05:44.223Z,5.00
2023-06-03T07:06:44.200Z,4.37
2023-06-03T07:07:44.175Z,4.63
2023-06-03T07:08:44.184Z,4.25
2023-06-03T07:09:44.131Z,4.94
2023-06-03T07:10:44.091Z,5.67
2023-06-03T07:11:44.049Z,5.45
2023-06-03T07:12:44.054Z,5.30
2023-06-03T07:13:43.989Z,5.73
2023-06-03T07:14:43.980Z,5.45
2023-06-03T07:15:43.957Z,5.32
2023-06-03T07:16:44.038Z,4.69
2023-06-03T07:17:43.956Z,4.86
2023-06-03T07:18:43.877Z,5.82
2023-06-03T07:19:43.838Z,5.83
2023-06-03T07:20:43.821Z,4.66
2023-06-03T07:21:43.777Z,4.94
2023-06-03T07:22:43.777Z,5.00
2023-06-03T07:23:43.850Z,4.76
2023-06-03T07:24:43.794Z,4.58
2023-06-03T07:25:43.836Z,5.02
2023-06-03T07:26:43.841Z,5.00
2023-06-03T07:27:43.876Z,5.32
2023-06-03T07:28:43.908Z,5.31
2023-06-03T07:29:43.925Z,5.53
2023-06-03T07:30:43.919Z,4.98
2023-06-03T07:31:44.007Z,4.70
2023-06-03T07:32:43.990Z,5.13
2023-06-03T07:33:44.009Z,5.39
2023-06-03T07:34:44.045Z,5.38
2023-06-03T07:35:44.054Z,5.05
2023-06-03T07:36:44.075Z,5.13
2023-06-03T07:37:44.082Z,4.94
2023-06-03T07:38:44.087Z,5.14
2023-06-03T07:39:44.129Z,4.79
2023-06-03T07:40:44.174Z,4.84
2023-06-03T07:41:44.169Z,5.28
2023-06-03T07:42:44.210Z,4.50
2023-06-03T07:43:44.207Z,5.10
2023-06-03T07:44:44.307Z,4.75
2023-06-03T07:45:44.210Z,4.92
2023-06-03T07:46:44.465Z,4.72
2023-06-03T07:47:44.260Z,4.63
2023-06-03T07:48:44.214Z,4.81
2023-06-03T07:49:44.256Z,4.49
2023-06-03T07:50:44.285Z,5.10
2023-06-03T07:51:44.258Z,4.83
2023-06-03T07:52:44.279Z,5.62
2023-06-03T07:53:44.359Z,5.12
2023-06-03T07:54:44.331Z,4.73
2023-06-03T07:55:44.289Z,5.17
2023-06-03T07:56:44.357Z,4.58
2023-06-03T07:57:44.374Z,4.79
2023-06-03T07:58:44.468Z,5.09
2023-06-03T07:59:44.372Z,5.02
2023-06-03T08:00:44.407Z,4.96
2023-06-03T08:01:44.446Z,5.38
2023-06-03T08:02:44.501Z,5.02
2023-06-03T08:03:44.370Z,4.38
2023-06-03T08:04:44.399Z,4.88
2023-06-03T08:05:44.381Z,5.22
2023-06-03T08:06:44.449Z,4.69
2023-06-03T08:07:44.438Z,5.12
2023-06-03T08:08:44.435Z,4.42
2023-06-03T08:09:44.545Z,5.17
2023-06-03T08:10:44.466Z,4.84
2023-06-03T08:11:44.488Z,4.87
2023-06-03T08:12:44.508Z,4.90
2023-06-03T08:13:44.517Z,4.72
2023-06-03T08:14:44.491Z,4.91
2023-06-03T08:15:44.482Z,5.21
2023-06-03T08:16:44.459Z,4.81
2023-06-03T08:17:44.432Z,4.92
2023-06-03T08:18:44.416Z,5.17
2023-06-03T08:19:44.411Z,4.60
2023-06-03T08:20:44.402Z,4.83
2023-06-03T08:21:44.385Z,4.84
2023-06-03T08:22:44.396Z,4.90
2023-06-03T08:23:44.402Z,5.11
2023-06-03T08:24:44.333Z,5.11
2023-06-03T08:25:44.304Z,4.28
2023-06-03T08:26:44.287Z,4.73
2023-06-03T08:27:44.263Z,4.60
2023-06-03T08:28:44.227Z,4.85
2023-06-03T08:29:44.231Z,4.83
2023-06-03T08:30:44.235Z,4.85
2023-06-03T08:31:44.270Z,5.46
2023-06-03T08:32:44.219Z,4.74
2023-06-03T08:33:44.197Z,4.94
2023-06-03T08:34:44.170Z,4.80
2023-06-03T08:35:44.162Z,4.62
2023-06-03T08:36:44.142Z,4.80
2023-06-03T08:37:44.144Z,4.86
2023-06-03T08:38:44.136Z,5.23
2023-06-03T08:39:44.102Z,5.37
2023-06-03T08:40:44.094Z,4.31
2023-06-03T08:41:44.080Z,4.23
2023-06-03T08:42:44.027Z,4.64
2023-06-03T08:43:44.039Z,5.21
2023-06-03T08:44:44.034Z,5.11
2023-06-03T08:45:44.032Z,4.33
2023-06-03T08:46:43.990Z,4.37
2023-06-03T08:47:44.014Z,4.35
2023-06-03T08:48:43.957Z,4.49
2023-06-03T08:49:43.943Z,4.54
2023-06-03T08:50:43.915Z,5.01
2023-06-03T08:51:43.913Z,4.47
2023-06-03T08:52:43.888Z,5.20
2023-06-03T08:53:43.861Z,4.79
2023-06-03T08:54:43.831Z,4.82
2023-06-03T08:55:43.789Z,4.72
2023-06-03T08:56:43.773Z,4.81
2023-06-03T08:57:43.759Z,5.18
2023-06-03T08:58:43.763Z,5.03
2023-06-03T08:59:43.729Z,4.87
2023-06-03T09:00:43.701Z,4.96
2023-06-03T09:01:43.750Z,5.11
2023-06-03T09:02:43.665Z,5.00
2023-06-03T09:03:43.689Z,5.09
2023-06-03T09:04:43.646Z,4.50
2023-06-03T09:05:43.590Z,4.94
2023-06-03T09:06:43.591Z,4.35
2023-06-03T09:07:43.545Z,5.27
2023-06-03T09:08:43.515Z,4.75
2023-06-03T09:09:43.631Z,5.03
2023-06-03T09:10:43.542Z,5.16
2023-06-03T09:11:43.442Z,4.83
2023-06-03T09:12:43.447Z,4.60
2023-06-03T09:13:43.418Z,4.27
2023-06-03T09:14:43.408Z,5.18
2023-06-03T09:15:43.452Z,4.83
2023-06-03T09:16:43.367Z,4.57
2023-06-03T09:17:43.388Z,4.70
2023-06-03T09:18:43.300Z,5.03
2023-06-03T09:19:43.295Z,4.35
2023-06-03T09:20:43.285Z,4.61
2023-06-03T09:21:43.287Z,5.58
2023-06-03T09:22:43.240Z,4.57
2023-06-03T09:23:43.252Z,5.12
2023-06-03T09:24:43.185Z,5.07
2023-06-03T09:25:43.161Z,4.40
2023-06-03T09:26:43.141Z,5.16
2023-06-03T09:27:43.094Z,4.82
2023-06-03T09:28:43.089Z,4.60
2023-06-03T09:29:43.057Z,4.51
2023-06-03T09:30:43.028Z,5.07
2023-06-03T09:31:43.037Z,4.95
2023-06-03T09:32:42.985Z,4.55
2023-06-03T09:33:42.982Z,5.02
2023-06-03T09:34:42.918Z,4.62
2023-06-03T09:35:42.895Z,4.85
2023-06-03T09:36:42.868Z,4.61
2023-06-03T09:37:42.840Z,5.75
2023-06-03T09:38:42.795Z,5.42
2023-06-03T09:39:42.809Z,4.66
2023-06-03T09:40:42.759Z,5.50
2023-06-03T09:41:42.729Z,4.62
2023-06-03T09:42:42.714Z,5.35
2023-06-03T09:43:42.676Z,5.09
2023-06-03T09:44:42.646Z,5.19
2023-06-03T09:45:42.603Z,4.91
2023-06-03T09:46:42.600Z,4.51
2023-06-03T09:47:42.575Z,4.65
2023-06-03T09:48:42.545Z,4.74
2023-06-03T09:50:42.449Z,5.01
2023-06-03T09:51:42.410Z,5.51
2023-06-03T09:52:42.376Z,5.30
2023-06-03T09:53:42.308Z,5.56
2023-06-03T09:54:42.248Z,5.35
2023-06-03T09:55:42.158Z,5.23
2023-06-03T09:56:42.197Z,5.22
2023-06-03T09:57:42.085Z,4.89
2023-06-03T09:58:41.984Z,5.10
2023-06-03T09:59:41.958Z,5.03
2023-06-03T10:00:41.901Z,5.25
2023-06-03T10:01:41.854Z,4.89
2023-06-03T10:02:41.984Z,4.76
2023-06-03T10:03:41.741Z,4.64
2023-06-03T10:04:41.694Z,5.57
2023-06-03T10:05:41.637Z,4.86
2023-06-03T10:06:41.566Z,4.70
2023-06-03T10:07:41.545Z,4.57
2023-06-03T10:08:41.475Z,5.33
2023-06-03T10:09:41.433Z,4.80
2023-06-03T10:10:41.389Z,5.05
2023-06-03T10:11:41.319Z,5.36
2023-06-03T10:12:41.300Z,5.03
2023-06-03T10:13:41.276Z,4.69
2023-06-03T10:14:41.172Z,4.58
2023-06-03T10:15:41.166Z,5.19
2023-06-03T10:16:41.168Z,5.56
2023-06-03T10:17:41.054Z,5.98
2023-06-03T10:18:40.984Z,5.23
2023-06-03T10:19:40.984Z,4.36
2023-06-03T10:20:40.918Z,5.33
2023-06-03T10:21:40.897Z,5.37
2023-06-03T10:22:40.880Z,5.27
2023-06-03T10:23:40.830Z,5.07
2023-06-03T10:24:40.739Z,5.13
2023-06-03T10:25:40.677Z,5.13
2023-06-03T10:26:40.640Z,4.80
2023-06-03T10:27:40.621Z,4.79
2023-06-03T10:28:40.606Z,5.22
2023-06-03T10:29:40.504Z,5.49
2023-06-03T10:30:40.483Z,4.83
2023-06-03T10:31:40.426Z,4.64
2023-06-03T10:32:40.380Z,5.09
2023-06-03T10:33:40.497Z,4.97
2023-06-03T10:34:40.343Z,5.01
2023-06-03T10:35:40.245Z,4.99
2023-06-03T10:36:40.215Z,5.15
2023-06-03T10:37:40.144Z,5.10
2023-06-03T10:38:40.123Z,5.19
2023-06-03T10:39:40.060Z,5.07
2023-06-03T10:40:40.039Z,5.04
2023-06-03T10:41:39.960Z,4.81
2023-06-03T10:42:39.945Z,4.43
2023-06-03T10:43:39.880Z,5.09
2023-06-03T10:44:39.829Z,4.95
2023-06-03T10:45:39.782Z,5.37
2023-06-03T10:46:39.792Z,5.32
2023-06-03T10:47:39.734Z,4.94
2023-06-03T10:48:39.657Z,4.62
2023-06-03T10:49:39.607Z,4.76
2023-06-03T10:50:39.561Z,4.47
2023-06-03T10:51:39.498Z,4.45
2023-06-03T10:52:39.472Z,5.11
2023-06-03T10:53:39.439Z,5.13
2023-06-03T10:54:39.401Z,4.65
2023-06-03T10:55:39.398Z,5.32
2023-06-03T10:56:39.280Z,5.48
2023-06-03T10:57:39.269Z,4.88
2023-06-03T10:58:39.192Z,4.73
2023-06-03T10:59:39.159Z,4.76
2023-06-03T11:00:39.081Z,5.33
2023-06-03T11:01:39.078Z,6.21
2023-06-03T11:02:39.024Z,4.96
2023-06-03T11:03:38.963Z,4.44
2023-06-03T11:04:38.868Z,4.96
2023-06-03T11:05:38.854Z,5.19
2023-06-03T11:06:38.773Z,4.86
2023-06-03T11:07:38.721Z,4.83
2023-06-03T11:08:38.672Z,4.72
2023-06-03T11:09:38.633Z,4.70
2023-06-03T11:10:38.600Z,5.20
2023-06-03T11:11:38.490Z,4.55
2023-06-03T11:12:38.442Z,4.43
2023-06-03T11:13:38.418Z,5.00
2023-06-03T11:14:38.373Z,5.07
2023-06-03T11:15:38.284Z,5.18
2023-06-03T11:16:38.251Z,4.88
2023-06-03T11:17:38.231Z,5.20
2023-06-03T11:18:38.123Z,4.84
2023-06-03T11:19:38.065Z,5.20
2023-06-03T11:20:37.985Z,4.77
2023-06-03T11:21:37.945Z,4.64
2023-06-03T11:22:37.888Z,4.63
2023-06-03T11:23:37.855Z,4.63
2023-06-03T11:24:37.814Z,4.43
2023-06-03T11:25:37.701Z,4.33
2023-06-03T11:26:37.660Z,4.63
2023-06-03T11:27:37.600Z,4.99
2023-06-03T11:28:38.049Z,5.24
2023-06-03T11:29:37.541Z,5.52
2023-06-03T11:30:37.443Z,4.43
2023-06-03T11:31:37.455Z,5.01
2023-06-03T11:32:37.426Z,5.03
2023-06-03T11:33:37.347Z,4.65
2023-06-03T11:34:37.266Z,4.45
2023-06-03T11:35:37.219Z,4.73
2023-06-03T11:36:37.223Z,5.13
2023-06-03T11:37:37.206Z,4.88
2023-06-03T11:38:37.194Z,4.55
2023-06-03T11:39:37.161Z,4.55
2023-06-03T11:40:37.127Z,4.97
2023-06-03T11:41:37.092Z,5.00
2023-06-03T11:42:37.033Z,5.16
2023-06-03T11:43:37.002Z,5.62
2023-06-03T11:44:37.008Z,5.04
2023-06-03T11:45:36.946Z,5.19
2023-06-03T11:46:36.937Z,4.44
2023-06-03T11:47:36.913Z,5.27
2023-06-03T11:48:36.912Z,5.24
2023-06-03T11:49:36.896Z,5.00
2023-06-03T11:50:36.882Z,5.43
2023-06-03T11:51:36.828Z,5.39
2023-06-03T11:52:36.841Z,5.02
2023-06-03T11:53:36.848Z,4.63
2023-06-03T11:54:36.809Z,4.67
2023-06-03T11:55:36.766Z,5.33
2023-06-03T11:56:36.715Z,4.66
2023-06-03T11:57:36.711Z,4.83
2023-06-03T11:58:36.701Z,5.20
2023-06-03T11:59:36.690Z,5.11
2023-06-03T12:00:36.651Z,4.71
2023-06-03T12:01:36.701Z,4.44
2023-06-03T12:02:38.184Z,5.49
2023-06-03T12:03:36.767Z,5.26
2023-06-03T12:04:36.696Z,5.08
2023-06-03T12:05:36.626Z,5.09
2023-06-03T12:06:36.569Z,5.44
2023-06-03T12:07:36.581Z,4.79
2023-06-03T12:08:38.159Z,4.78
2023-06-03T12:09:36.548Z,4.85
2023-06-03T12:10:36.490Z,5.23
2023-06-03T12:11:36.477Z,5.16
2023-06-03T12:12:36.455Z,4.90
2023-06-03T12:13:36.434Z,5.21
2023-06-03T12:14:36.462Z,4.82
2023-06-03T12:15:36.440Z,5.55
2023-06-03T12:16:36.406Z,5.06
2023-06-03T12:17:36.397Z,5.01
2023-06-03T12:18:36.388Z,4.76
2023-06-03T12:19:36.348Z,5.11
2023-06-03T12:20:36.290Z,4.69
2023-06-03T12:21:36.323Z,4.90
2023-06-03T12:22:36.304Z,4.68
2023-06-03T12:23:36.292Z,4.99
2023-06-03T12:24:36.221Z,4.69
2023-06-03T12:25:36.236Z,5.29
2023-06-03T12:26:36.228Z,5.20
2023-06-03T12:27:36.187Z,4.59
2023-06-03T12:28:36.165Z,5.13
2023-06-03T12:29:36.168Z,5.02
2023-06-03T12:30:38.865Z,5.19
2023-06-03T12:31:36.149Z,5.13
2023-06-03T12:32:36.177Z,4.65
2023-06-03T12:33:36.055Z,5.18
2023-06-03T12:34:35.936Z,4.49
2023-06-03T12:35:35.901Z,5.45
2023-06-03T12:36:38.192Z,4.54
2023-06-03T12:37:35.807Z,5.18
2023-06-03T12:38:35.765Z,4.63
2023-06-03T12:39:35.789Z,5.24
2023-06-03T12:40:35.764Z,5.36
2023-06-03T12:41:35.757Z,4.99
2023-06-03T12:42:35.756Z,5.18
2023-06-03T12:43:35.719Z,4.70
2023-06-03T12:44:35.696Z,4.45
2023-06-03T12:45:35.678Z,5.21
2023-06-03T12:46:35.676Z,5.43
2023-06-03T12:47:35.607Z,5.05
2023-06-03T12:48:35.571Z,4.92
2023-06-03T12:49:35.563Z,5.01
2023-06-03T12:50:35.487Z,4.85
2023-06-03T12:51:35.506Z,4.83
2023-06-03T12:52:35.487Z,5.09
2023-06-03T12:53:35.445Z,4.79
2023-06-03T12:54:35.467Z,4.76
2023-06-03T12:55:35.455Z,4.92
2023-06-03T12:56:35.454Z,4.25
2023-06-03T12:57:35.413Z,4.45
2023-06-03T12:58:35.368Z,4.66
2023-06-03T12:59:35.321Z,4.46
2023-06-03T13:00:35.325Z,5.22
2023-06-03T13:01:35.361Z,5.08
2023-06-03T13:02:35.368Z,4.53
2023-06-03T13:03:35.289Z,4.59
2023-06-03T13:04:35.258Z,5.60
2023-06-03T13:05:35.234Z,5.14
2023-06-03T13:06:35.192Z,5.29
2023-06-03T13:07:35.178Z,5.70
2023-06-03T13:08:35.170Z,5.16
2023-06-03T13:09:35.176Z,5.01
2023-06-03T13:10:35.138Z,5.02
2023-06-03T13:11:35.117Z,5.19
2023-06-03T13:12:35.148Z,4.80
2023-06-03T13:13:35.109Z,5.39
2023-06-03T13:14:35.091Z,5.62
2023-06-03T13:15:35.081Z,5.43
2023-06-03T13:16:35.104Z,4.92
2023-06-03T13:17:35.162Z,5.40
2023-06-03T13:18:35.033Z,4.91
2023-06-03T13:19:35.026Z,5.15